createdAt,value
2022-10-12T00:00:38.116Z,83.00
2022-10-12T00:05:37.177Z,83.00
2022-10-12T00:10:36.026Z,83.20
2022-10-12T00:15:35.193Z,83.20
2022-10-12T00:20:34.017Z,83.20
2022-10-12T00:25:33.207Z,83.30
2022-10-12T00:30:32.229Z,83.60
2022-10-12T00:35:31.041Z,83.90
2022-10-12T00:40:30.028Z,84.10
2022-10-12T00:45:29.060Z,84.00
2022-10-12T00:50:28.019Z,83.80
2022-10-12T00:55:27.071Z,84.00
2022-10-12T01:00:26.085Z,83.80
2022-10-12T01:05:25.121Z,84.00
2022-10-12T01:10:24.108Z,84.10
2022-10-12T01:15:23.121Z,84.30
2022-10-12T01:20:22.036Z,84.30
2022-10-12T01:25:21.152Z,84.20
2022-10-12T01:30:21.355Z,84.30
2022-10-12T01:35:20.222Z,84.50
2022-10-12T01:40:19.191Z,84.90
2022-10-12T01:45:18.218Z,85.00
2022-10-12T01:50:17.262Z,85.30
2022-10-12T01:55:16.234Z,85.60
2022-10-12T02:00:15.147Z,85.60
2022-10-12T02:05:14.281Z,85.70
2022-10-12T02:10:13.545Z,85.50
2022-10-12T02:15:12.108Z,85.50
2022-10-12T02:20:11.090Z,85.80
2022-10-12T02:25:13.395Z,86.00
2022-10-12T02:30:12.176Z,86.10
2022-10-12T02:35:11.183Z,86.20
2022-10-12T02:40:10.192Z,86.30
2022-10-12T02:45:09.121Z,86.50
2022-10-12T02:50:08.138Z,86.50
2022-10-12T02:55:07.142Z,86.50
2022-10-12T03:00:06.163Z,86.40
2022-10-12T03:05:05.231Z,86.40
2022-10-12T03:10:04.326Z,86.40
2022-10-12T03:15:03.287Z,86.60
2022-10-12T03:20:02.299Z,86.80
2022-10-12T03:25:01.310Z,86.90
2022-10-12T03:30:03.228Z,86.80
2022-10-12T03:35:02.203Z,86.90
2022-10-12T03:40:01.194Z,86.80
2022-10-12T03:45:00.472Z,86.80
2022-10-12T03:49:59.230Z,86.70
2022-10-12T03:54:58.259Z,86.70
2022-10-12T03:59:57.147Z,86.90
2022-10-12T04:04:56.259Z,87.10
2022-10-12T04:09:55.277Z,87.00
2022-10-12T04:14:54.903Z,87.20
2022-10-12T04:19:54.320Z,87.20
2022-10-12T04:24:53.130Z,87.30
2022-10-12T04:29:52.146Z,87.40
2022-10-12T04:34:51.144Z,87.90
2022-10-12T04:39:50.179Z,88.20
2022-10-12T04:44:49.176Z,88.30
2022-10-12T04:49:48.201Z,88.50
2022-10-12T04:54:47.291Z,88.60
2022-10-12T04:59:46.232Z,88.50
2022-10-12T05:04:45.232Z,88.60
2022-10-12T05:09:44.264Z,88.60
2022-10-12T05:14:44.127Z,88.60
2022-10-12T05:19:43.306Z,88.80
2022-10-12T05:24:42.266Z,88.90
2022-10-12T05:29:41.282Z,89.10
2022-10-12T05:34:41.987Z,89.20
2022-10-12T05:39:42.167Z,89.20
2022-10-12T05:44:41.194Z,89.30
2022-10-12T05:49:40.225Z,89.20
2022-10-12T05:54:39.292Z,89.00
2022-10-12T05:59:38.510Z,88.90
2022-10-12T06:04:37.226Z,88.90
2022-10-12T06:09:38.642Z,89.00
2022-10-12T06:14:37.336Z,89.00
2022-10-12T06:19:36.340Z,88.90
2022-10-12T06:24:35.263Z,88.90
2022-10-12T06:29:35.477Z,88.90
2022-10-12T06:34:34.412Z,88.90
2022-10-12T06:39:33.305Z,89.00
2022-10-12T06:44:32.517Z,88.90
2022-10-12T06:49:31.213Z,89.10
2022-10-12T06:54:30.225Z,89.10
2022-10-12T06:59:29.266Z,89.10
2022-10-12T07:04:28.253Z,89.10
2022-10-12T07:09:27.278Z,89.50
2022-10-12T07:14:26.282Z,89.70
2022-10-12T07:19:25.302Z,89.90
2022-10-12T07:24:24.209Z,90.00
2022-10-12T07:29:23.342Z,90.10
2022-10-12T07:34:22.304Z,90.20
2022-10-12T07:39:21.997Z,90.20
2022-10-12T07:44:22.155Z,90.30
2022-10-12T07:49:21.409Z,90.30
2022-10-12T07:54:23.481Z,89.70
2022-10-12T07:59:21.295Z,89.90
2022-10-12T08:04:20.261Z,89.80
2022-10-12T08:09:19.395Z,89.70
2022-10-12T08:14:18.305Z,89.60
2022-10-12T08:19:17.364Z,88.50
2022-10-12T08:24:16.252Z,88.20
2022-10-12T08:29:15.349Z,88.00
2022-10-12T08:34:17.420Z,87.60
2022-10-12T08:39:16.435Z,86.70
2022-10-12T08:44:15.228Z,86.50
2022-10-12T08:49:14.349Z,85.60
2022-10-12T08:54:13.292Z,84.90
2022-10-12T08:59:12.532Z,85.60
2022-10-12T09:04:11.581Z,85.00
2022-10-12T09:09:10.381Z,84.30
2022-10-12T09:14:09.273Z,84.60
2022-10-12T09:19:08.322Z,84.50
2022-10-12T09:24:07.320Z,84.80
2022-10-12T09:29:06.465Z,84.50
2022-10-12T09:34:05.306Z,83.50
2022-10-12T09:39:04.369Z,82.60
2022-10-12T09:44:03.367Z,80.90
2022-10-12T09:49:02.364Z,80.10
2022-10-12T09:54:03.169Z,80.20
2022-10-12T09:59:02.497Z,78.40
2022-10-12T10:04:01.531Z,78.60
2022-10-12T10:09:00.875Z,78.20
2022-10-12T10:13:59.324Z,78.10
2022-10-12T10:18:58.540Z,77.90
2022-10-12T10:23:57.374Z,78.30
2022-10-12T10:28:56.581Z,78.70
2022-10-12T10:33:55.334Z,79.00
2022-10-12T10:38:54.609Z,78.90
2022-10-12T10:43:53.338Z,78.50
2022-10-12T10:48:53.048Z,78.70
2022-10-12T10:53:52.409Z,78.80
2022-10-12T10:58:51.401Z,78.70
2022-10-12T11:03:52.340Z,79.10
2022-10-12T11:08:51.468Z,78.70
2022-10-12T11:13:50.493Z,78.30
2022-10-12T11:18:49.480Z,78.70
2022-10-12T11:23:48.315Z,78.20
2022-10-12T11:28:47.582Z,77.40
2022-10-12T11:33:46.636Z,77.60
2022-10-12T11:38:45.335Z,77.50
2022-10-12T11:43:44.577Z,75.90
2022-10-12T11:48:43.555Z,75.10
2022-10-12T11:53:42.572Z,75.70
2022-10-12T11:58:59.817Z,73.80
2022-10-12T12:03:42.393Z,73.10
2022-10-12T12:08:41.345Z,72.60
2022-10-12T12:13:40.461Z,71.80
2022-10-12T12:18:39.490Z,71.00
2022-10-12T12:23:38.483Z,71.40
2022-10-12T12:28:37.554Z,71.70
2022-10-12T12:33:38.004Z,72.10
2022-10-12T12:38:36.535Z,69.80
2022-10-12T12:43:36.004Z,69.80
2022-10-12T12:48:34.466Z,70.30
2022-10-12T12:53:33.405Z,68.50
2022-10-12T12:58:32.502Z,68.40
2022-10-12T13:03:31.588Z,69.10
2022-10-12T13:08:30.300Z,69.30
2022-10-12T13:13:29.412Z,69.00
2022-10-12T13:18:46.460Z,68.80
2022-10-12T13:23:29.491Z,68.80
2022-10-12T13:28:28.809Z,69.20
2022-10-12T13:33:32.022Z,69.70
2022-10-12T13:38:28.555Z,69.40
2022-10-12T13:43:27.404Z,69.80
2022-10-12T13:48:53.896Z,70.00
2022-10-12T13:53:27.488Z,69.40
2022-10-12T13:58:26.383Z,68.50
2022-10-12T14:03:28.788Z,68.10
2022-10-12T14:08:27.541Z,66.80
2022-10-12T14:13:26.615Z,67.40
2022-10-12T14:18:25.620Z,66.10
2022-10-12T14:23:24.656Z,66.90
2022-10-12T14:28:24.232Z,66.60
2022-10-12T14:33:23.525Z,67.30
2022-10-12T14:38:22.653Z,67.90
2022-10-12T14:43:23.355Z,67.80
2022-10-12T14:48:23.288Z,67.90
2022-10-12T14:53:24.433Z,67.90
2022-10-12T14:58:23.600Z,67.60
2022-10-12T15:03:22.612Z,67.90
2022-10-12T15:08:21.611Z,68.20
2022-10-12T15:13:20.897Z,68.50
2022-10-12T15:18:19.644Z,68.80
2022-10-12T15:23:18.925Z,69.10
2022-10-12T15:28:17.677Z,69.40
2022-10-12T15:33:16.567Z,69.80
2022-10-12T15:38:15.820Z,70.00
2022-10-12T15:48:13.802Z,70.50
2022-10-12T15:53:12.752Z,70.70
2022-10-12T15:58:11.513Z,71.20
2022-10-12T16:03:10.798Z,71.40
2022-10-12T16:08:09.637Z,71.70
2022-10-12T16:13:08.580Z,72.00
2022-10-12T16:18:08.004Z,72.40
2022-10-12T16:23:06.649Z,72.70
2022-10-12T16:28:05.627Z,73.20
2022-10-12T16:33:04.713Z,73.30
2022-10-12T16:38:03.625Z,73.70
2022-10-12T16:43:02.693Z,74.10
2022-10-12T16:48:02.103Z,74.40
2022-10-12T16:53:00.657Z,74.60
2022-10-12T16:57:59.765Z,75.20
2022-10-12T17:02:58.981Z,75.50
2022-10-12T17:07:57.485Z,76.20
2022-10-12T17:12:56.705Z,76.30
2022-10-12T17:17:57.622Z,77.10
2022-10-12T17:22:56.758Z,77.60
2022-10-12T17:27:55.665Z,77.90
2022-10-12T17:32:55.414Z,78.00
2022-10-12T17:37:55.017Z,78.20
2022-10-12T17:42:54.359Z,78.20
2022-10-12T17:47:53.697Z,78.60
2022-10-12T17:52:55.765Z,79.00
2022-10-12T17:57:55.081Z,79.60
2022-10-12T18:02:53.793Z,80.00
2022-10-12T18:07:52.906Z,80.20
2022-10-12T18:12:51.586Z,80.40
2022-10-12T18:17:51.388Z,80.80
2022-10-12T18:22:50.653Z,81.30
2022-10-12T18:27:49.957Z,81.70
2022-10-12T18:32:48.687Z,82.10
2022-10-12T18:37:47.702Z,82.30
2022-10-12T18:42:46.702Z,82.50
2022-10-12T18:47:45.713Z,82.50
2022-10-12T18:52:44.633Z,82.70
2022-10-12T18:57:43.516Z,83.00
2022-10-12T19:02:42.537Z,83.10
2022-10-12T19:07:41.546Z,83.20
2022-10-12T19:12:45.520Z,83.30
2022-10-12T19:17:41.495Z,83.10
2022-10-12T19:22:40.604Z,83.30
2022-10-12T19:27:39.513Z,83.40
2022-10-12T19:32:38.866Z,83.90
2022-10-12T19:37:37.654Z,84.00
2022-10-12T19:42:36.691Z,83.90
2022-10-12T19:47:35.674Z,83.90
2022-10-12T19:52:34.733Z,83.90
2022-10-12T19:57:38.538Z,83.90
2022-10-12T20:02:34.761Z,84.00
2022-10-12T20:07:33.758Z,84.20
2022-10-12T20:12:32.835Z,84.40
2022-10-12T20:17:31.785Z,84.30
2022-10-12T20:22:30.830Z,84.40
2022-10-12T20:27:30.248Z,84.50
2022-10-12T20:32:28.878Z,84.60
2022-10-12T20:37:27.657Z,84.70
2022-10-12T20:42:27.233Z,84.80
2022-10-12T20:47:26.681Z,85.10
2022-10-12T20:52:25.694Z,85.30
2022-10-12T20:57:24.714Z,85.70
2022-10-12T21:02:23.705Z,86.00
2022-10-12T21:07:22.842Z,86.30
2022-10-12T21:12:21.840Z,86.50
2022-10-12T21:17:20.765Z,86.50
2022-10-12T21:22:20.231Z,86.50
2022-10-12T21:27:19.869Z,86.40
2022-10-12T21:32:19.020Z,86.80
2022-10-12T21:37:18.913Z,86.90
2022-10-12T21:42:18.298Z,87.30
2022-10-12T21:47:18.452Z,87.50
2022-10-12T21:52:18.138Z,88.20
2022-10-12T21:57:17.764Z,88.40
2022-10-12T22:02:16.902Z,88.70
2022-10-12T22:07:17.694Z,88.80
2022-10-12T22:12:17.074Z,89.10
2022-10-12T22:17:17.695Z,89.20
2022-10-12T22:22:17.041Z,89.80
2022-10-12T22:27:15.917Z,90.00
2022-10-12T22:32:14.759Z,90.20
2022-10-12T22:37:13.637Z,90.10
2022-10-12T22:42:12.753Z,90.20
2022-10-12T22:47:11.659Z,90.20
2022-10-12T22:52:11.083Z,90.40
2022-10-12T22:57:09.827Z,90.60
2022-10-12T23:02:09.075Z,90.70
2022-10-12T23:07:07.801Z,90.80
2022-10-12T23:12:06.795Z,90.90
2022-10-12T23:17:05.706Z,91.00
2022-10-12T23:22:04.836Z,91.10
2022-10-12T23:27:03.860Z,91.10
2022-10-12T23:32:02.840Z,91.20
2022-10-12T23:37:01.855Z,91.30
2022-10-12T23:42:00.876Z,91.30
2022-10-12T23:46:59.892Z,91.50
2022-10-12T23:51:58.811Z,91.50
2022-10-12T23:56:57.916Z,91.50
